Time;durP1;ratioP1;P1;durP2;ratioP2;P2;SDS_P1;SDS_P2;PMS_P1;PMS_P2;Temp;Humidity;BMP_temperature;BMP_pressure;BME280_temperature;BME280_humidity;BME280_pressure;Samples;Min_cycle;Max_cycle;Signal;HPM_P1;HPM_P2
2022/05/30 00:01:07;;;;;;;9.77;5.72;;;;;;;;;;4991067;28;20021;-86
2022/05/30 00:03:32;;;;;;;8.93;5.95;;;;;;;;;;5005708;28;20068;-85
2022/05/30 00:05:58;;;;;;;8.07;6.07;;;;;;;;;;5012285;28;20112;-85
2022/05/30 00:08:23;;;;;;;9.77;5.95;;;;;;;;;;5009138;28;20029;-86
2022/05/30 00:10:49;;;;;;;12.20;6.60;;;;;;;;;;5007298;28;20033;-83
2022/05/30 00:13:14;;;;;;;11.32;6.70;;;;;;;;;;5012729;28;20042;-86
2022/05/30 00:15:41;;;;;;;9.27;6.22;;;;;;;;;;5008302;28;20030;-88
2022/05/30 00:18:12;;;;;;;9.98;6.15;;;;;;;;;;4990332;28;20037;-86
2022/05/30 00:20:43;;;;;;;10.65;7.47;;;;;;;;;;5013130;28;20064;-87
2022/05/30 00:23:08;;;;;;;11.80;6.90;;;;;;;;;;4992553;28;20028;-86
2022/05/30 00:25:34;;;;;;;18.65;10.13;;;;;;;;;;4995272;28;20112;-85
2022/05/30 00:27:59;;;;;;;18.90;10.85;;;;;;;;;;5007921;28;20029;-87
2022/05/30 00:30:25;;;;;;;17.92;11.48;;;;;;;;;;5012748;28;20370;-86
2022/05/30 00:32:50;;;;;;;18.05;11.40;;;;;;;;;;5012253;28;20034;-88
2022/05/30 00:35:16;;;;;;;17.23;9.73;;;;;;;;;;4990106;28;20034;-88
2022/05/30 00:37:41;;;;;;;19.63;11.35;;;;;;;;;;5010709;28;20033;-86
2022/05/30 00:40:07;;;;;;;27.23;14.90;;;;;;;;;;5008116;28;20053;-87
2022/05/30 00:42:34;;;;;;;30.70;15.82;;;;;;;;;;4994116;28;20030;-85
2022/05/30 00:44:59;;;;;;;20.75;12.55;;;;;;;;;;4991375;28;20058;-88
2022/05/30 00:47:25;;;;;;;16.55;8.25;;;;;;;;;;5012118;28;20053;-85
2022/05/30 00:49:51;;;;;;;15.23;9.13;;;;;;;;;;4993564;28;20026;-87
2022/05/30 00:52:27;;;;;;;16.58;9.35;;;;;;;;;;5009582;28;20030;-87
2022/05/30 00:55:00;;;;;;;22.63;9.75;;;;;;;;;;5011154;28;20412;-86
2022/05/30 00:57:29;;;;;;;13.63;9.35;;;;;;;;;;5011513;28;20030;-87
2022/05/30 01:00:04;;;;;;;16.75;10.13;;;;;;;;;;5010615;28;20118;-85
2022/05/30 01:02:35;;;;;;;18.65;11.57;;;;;;;;;;4989677;28;20017;-85
2022/05/30 01:07:47;;;;;;;18.88;10.18;;;;;;;;;;5007337;28;20095;-85
2022/05/30 01:10:19;;;;;;;16.88;9.90;;;;;;;;;;5005217;28;20025;-86
2022/05/30 01:12:52;;;;;;;21.42;10.57;;;;;;;;;;5003036;28;20438;-85
2022/05/30 01:15:21;;;;;;;13.93;8.93;;;;;;;;;;4988491;28;20117;-87
2022/05/30 01:17:53;;;;;;;13.40;9.00;;;;;;;;;;4987379;28;20030;-85
2022/05/30 01:20:51;;;;;;;16.10;9.52;;;;;;;;;;4985008;28;20478;-83
2022/05/30 01:23:21;;;;;;;19.23;9.75;;;;;;;;;;4962246;28;20037;-88
2022/05/30 01:26:05;;;;;;;17.48;10.38;;;;;;;;;;4991443;28;20490;-87
2022/05/30 01:28:42;;;;;;;17.92;10.98;;;;;;;;;;5005941;28;20038;-85
2022/05/30 01:31:08;;;;;;;18.17;10.27;;;;;;;;;;5004985;28;20026;-86
2022/05/30 01:33:34;;;;;;;16.02;10.05;;;;;;;;;;4988597;28;20064;-86
2022/05/30 01:36:00;;;;;;;17.27;10.23;;;;;;;;;;4987574;28;20038;-85
2022/05/30 01:38:27;;;;;;;17.17;10.05;;;;;;;;;;5012201;28;20064;-84
2022/05/30 01:40:55;;;;;;;17.00;11.02;;;;;;;;;;5011646;28;20046;-82
2022/05/30 01:43:21;;;;;;;21.02;9.95;;;;;;;;;;4993227;28;20025;-86
2022/05/30 01:45:46;;;;;;;15.25;9.68;;;;;;;;;;4991013;28;20080;-88
2022/05/30 01:48:12;;;;;;;19.83;10.30;;;;;;;;;;4993853;28;20486;-83
2022/05/30 01:50:37;;;;;;;18.08;9.02;;;;;;;;;;4991058;28;20022;-84
2022/05/30 01:53:02;;;;;;;13.68;8.38;;;;;;;;;;5010821;28;20037;-85
2022/05/30 01:55:28;;;;;;;13.45;8.15;;;;;;;;;;5011450;28;20521;-88
2022/05/30 01:57:53;;;;;;;13.80;7.97;;;;;;;;;;4993371;28;20293;-85
2022/05/30 02:00:19;;;;;;;15.00;8.45;;;;;;;;;;5011759;28;20362;-87
2022/05/30 02:02:45;;;;;;;16.73;9.25;;;;;;;;;;5011289;28;20022;-87
2022/05/30 02:05:12;;;;;;;19.17;10.88;;;;;;;;;;4991161;28;20449;-86
2022/05/30 02:07:37;;;;;;;17.05;9.23;;;;;;;;;;5008818;28;20029;-86
2022/05/30 02:10:04;;;;;;;17.73;10.68;;;;;;;;;;5011392;28;20048;-87
2022/05/30 02:12:29;;;;;;;17.75;8.45;;;;;;;;;;4992821;28;20030;-88
2022/05/30 02:14:55;;;;;;;18.42;9.77;;;;;;;;;;4992101;28;20025;-87
2022/05/30 02:17:20;;;;;;;18.23;9.57;;;;;;;;;;5007889;28;20057;-86
2022/05/30 02:19:46;;;;;;;16.77;9.35;;;;;;;;;;5009032;28;20022;-85
2022/05/30 02:22:19;;;;;;;20.25;10.52;;;;;;;;;;5010886;28;20363;-88
2022/05/30 02:24:48;;;;;;;22.20;12.15;;;;;;;;;;5011488;28;20042;-87
2022/05/30 02:27:15;;;;;;;22.25;11.80;;;;;;;;;;5006543;28;20045;-86
2022/05/30 02:29:42;;;;;;;19.23;11.38;;;;;;;;;;4991368;28;20076;-86
2022/05/30 02:32:08;;;;;;;20.60;11.68;;;;;;;;;;5011032;28;20363;-85
2022/05/30 02:37:18;;;;;;;22.92;11.40;;;;;;;;;;5013177;28;20169;-86
2022/05/30 02:39:44;;;;;;;21.48;11.55;;;;;;;;;;5011138;28;20022;-85
2022/05/30 02:42:09;;;;;;;19.85;10.15;;;;;;;;;;5014793;28;20065;-86
2022/05/30 02:44:36;;;;;;;16.85;8.10;;;;;;;;;;5011854;28;20088;-85
2022/05/30 02:47:02;;;;;;;13.55;6.28;;;;;;;;;;4995466;28;20025;-83
2022/05/30 02:49:28;;;;;;;12.23;5.50;;;;;;;;;;4994603;28;20026;-86
2022/05/30 02:51:54;;;;;;;12.38;6.03;;;;;;;;;;4994835;28;20030;-86
2022/05/30 02:54:20;;;;;;;9.98;5.40;;;;;;;;;;5013365;28;20053;-88
2022/05/30 02:56:50;;;;;;;12.55;6.15;;;;;;;;;;5012258;28;20065;-85
2022/05/30 02:59:16;;;;;;;11.60;5.05;;;;;;;;;;5008619;28;20029;-86
2022/05/30 03:01:41;;;;;;;15.32;6.13;;;;;;;;;;5011338;28;20037;-86
2022/05/30 03:04:07;;;;;;;22.42;5.95;;;;;;;;;;5010469;28;20378;-86
2022/05/30 03:06:33;;;;;;;8.77;5.50;;;;;;;;;;4994993;28;20111;-85
2022/05/30 03:09:00;;;;;;;15.60;7.05;;;;;;;;;;5011098;28;20421;-86
2022/05/30 03:11:26;;;;;;;12.65;6.50;;;;;;;;;;5011350;28;20041;-84
2022/05/30 03:13:51;;;;;;;12.00;5.68;;;;;;;;;;4994797;28;20524;-86
2022/05/30 03:16:17;;;;;;;12.93;5.97;;;;;;;;;;4993275;28;20021;-84
2022/05/30 03:18:43;;;;;;;11.35;5.57;;;;;;;;;;5011199;28;20030;-86
2022/05/30 03:21:10;;;;;;;11.43;6.97;;;;;;;;;;4995111;28;20806;-86
2022/05/30 03:23:35;;;;;;;11.98;6.25;;;;;;;;;;4994724;28;20461;-86
2022/05/30 03:26:01;;;;;;;11.35;5.75;;;;;;;;;;5012698;28;20033;-86
2022/05/30 03:28:26;;;;;;;15.20;6.57;;;;;;;;;;4992145;28;20496;-87
2022/05/30 03:30:52;;;;;;;12.00;6.05;;;;;;;;;;5009760;28;20030;-87
2022/05/30 03:33:18;;;;;;;13.35;6.13;;;;;;;;;;5014131;28;20160;-87
2022/05/30 03:35:43;;;;;;;10.68;5.43;;;;;;;;;;4992464;28;20069;-87
2022/05/30 03:38:10;;;;;;;9.50;5.43;;;;;;;;;;5008858;28;20039;-88
2022/05/30 03:40:37;;;;;;;15.50;5.80;;;;;;;;;;4993783;28;20034;-85
2022/05/30 03:43:09;;;;;;;10.80;6.25;;;;;;;;;;5010480;28;20037;-85
2022/05/30 03:45:42;;;;;;;12.43;6.57;;;;;;;;;;4993065;28;20022;-84
2022/05/30 03:48:09;;;;;;;12.30;6.40;;;;;;;;;;4995319;28;20030;-84
2022/05/30 03:50:38;;;;;;;12.32;7.00;;;;;;;;;;5006655;28;20740;-84
2022/05/30 03:53:07;;;;;;;10.68;6.75;;;;;;;;;;5012734;28;20033;-85
2022/05/30 03:55:35;;;;;;;15.80;7.88;;;;;;;;;;4988887;28;20022;-84
2022/05/30 03:58:05;;;;;;;13.02;7.45;;;;;;;;;;5013311;28;20034;-84
2022/05/30 04:00:31;;;;;;;9.25;6.15;;;;;;;;;;4995263;28;20414;-86
2022/05/30 04:02:58;;;;;;;16.05;7.28;;;;;;;;;;4992857;28;20024;-84
2022/05/30 04:05:24;;;;;;;16.45;9.63;;;;;;;;;;5011510;28;20046;-85
2022/05/30 04:07:49;;;;;;;15.88;8.90;;;;;;;;;;5011357;28;20029;-85
2022/05/30 04:10:15;;;;;;;20.05;9.88;;;;;;;;;;4993058;28;20018;-85
2022/05/30 04:12:40;;;;;;;19.15;9.88;;;;;;;;;;4991119;28;20036;-85
2022/05/30 04:15:10;;;;;;;16.30;9.75;;;;;;;;;;5009982;28;20022;-85
2022/05/30 04:17:37;;;;;;;;;;;;;;;;;;4990975;28;20029;-85
2022/05/30 04:20:05;;;;;;;22.60;10.77;;;;;;;;;;5006228;28;20277;-85
2022/05/30 04:22:30;;;;;;;15.80;10.45;;;;;;;;;;5006661;28;20731;-84
2022/05/30 04:24:56;;;;;;;20.27;11.05;;;;;;;;;;5010373;28;20048;-85
2022/05/30 04:27:22;;;;;;;18.38;11.18;;;;;;;;;;5008278;28;20029;-85
2022/05/30 04:29:48;;;;;;;21.95;12.00;;;;;;;;;;4988398;28;20022;-85
2022/05/30 04:32:16;;;;;;;22.67;12.20;;;;;;;;;;4991595;28;20402;-85
2022/05/30 04:34:42;;;;;;;23.70;12.48;;;;;;;;;;5009978;28;20030;-86
2022/05/30 04:37:08;;;;;;;18.10;10.98;;;;;;;;;;5010507;28;20449;-86
2022/05/30 04:39:34;;;;;;;26.90;14.00;;;;;;;;;;4989074;28;20030;-84
2022/05/30 04:41:59;;;;;;;20.92;13.00;;;;;;;;;;5009875;28;20034;-85
2022/05/30 04:44:25;;;;;;;21.08;14.23;;;;;;;;;;5007827;28;20029;-84
2022/05/30 04:46:53;;;;;;;20.40;13.25;;;;;;;;;;4993219;28;20462;-86
2022/05/30 04:49:18;;;;;;;19.00;11.88;;;;;;;;;;5010059;28;20034;-87
2022/05/30 04:51:44;;;;;;;20.90;13.18;;;;;;;;;;5012413;28;20041;-85
2022/05/30 04:54:09;;;;;;;19.88;12.45;;;;;;;;;;5011974;28;20458;-85
2022/05/30 04:56:35;;;;;;;23.98;14.07;;;;;;;;;;4986285;28;20042;-87
2022/05/30 04:59:00;;;;;;;22.00;12.52;;;;;;;;;;4983324;28;20030;-85
2022/05/30 05:01:27;;;;;;;25.23;13.73;;;;;;;;;;4986821;28;20029;-87
2022/05/30 05:03:52;;;;;;;20.27;12.60;;;;;;;;;;4986147;28;20033;-84
2022/05/30 05:06:20;;;;;;;23.73;13.32;;;;;;;;;;5004399;28;20025;-84
2022/05/30 05:08:58;;;;;;;19.77;12.70;;;;;;;;;;5002348;28;20026;-86
2022/05/30 05:11:26;;;;;;;21.98;13.48;;;;;;;;;;5005500;28;20029;-84
2022/05/30 05:13:52;;;;;;;17.85;11.98;;;;;;;;;;4985801;28;20083;-84
2022/05/30 05:16:20;;;;;;;18.42;10.63;;;;;;;;;;5010319;28;20075;-82
2022/05/30 05:18:47;;;;;;;25.13;13.10;;;;;;;;;;4988183;28;21607;-85
2022/05/30 05:21:18;;;;;;;16.00;11.40;;;;;;;;;;5003943;28;20028;-85
2022/05/30 05:23:43;;;;;;;17.23;10.57;;;;;;;;;;4990079;28;20030;-86
2022/05/30 05:26:09;;;;;;;14.23;11.23;;;;;;;;;;5004560;28;20036;-83
2022/05/30 05:28:35;;;;;;;18.52;10.65;;;;;;;;;;4987274;28;20045;-83
2022/05/30 05:31:01;;;;;;;17.63;10.32;;;;;;;;;;5006003;28;20037;-84
2022/05/30 05:33:27;;;;;;;16.58;10.65;;;;;;;;;;4998133;28;20030;-85
2022/05/30 05:35:53;;;;;;;17.50;9.80;;;;;;;;;;4990719;28;20482;-87
2022/05/30 05:38:18;;;;;;;16.05;9.48;;;;;;;;;;4992876;28;20034;-85
2022/05/30 05:40:46;;;;;;;17.10;9.75;;;;;;;;;;5009560;28;20100;-83
2022/05/30 05:43:12;;;;;;;15.32;10.02;;;;;;;;;;4991293;28;20057;-84
2022/05/30 05:45:39;;;;;;;13.43;9.55;;;;;;;;;;4988752;28;20064;-83
2022/05/30 05:48:06;;;;;;;15.07;9.70;;;;;;;;;;5004839;28;20034;-84
2022/05/30 05:50:32;;;;;;;14.45;10.52;;;;;;;;;;5004341;28;20060;-84
2022/05/30 05:52:57;;;;;;;18.30;10.80;;;;;;;;;;5010182;28;20037;-82
2022/05/30 05:55:23;;;;;;;13.02;9.43;;;;;;;;;;5011820;28;20037;-82
2022/05/30 05:57:49;;;;;;;15.65;9.82;;;;;;;;;;4992114;28;20504;-84
2022/05/30 06:00:16;;;;;;;13.45;9.10;;;;;;;;;;5008616;28;20030;-83
2022/05/30 06:02:41;;;;;;;16.60;10.80;;;;;;;;;;4993095;28;20037;-82
2022/05/30 06:05:10;;;;;;;19.30;10.68;;;;;;;;;;4987942;28;20029;-82
2022/05/30 06:07:39;;;;;;;17.27;11.93;;;;;;;;;;5002486;28;20026;-84
2022/05/30 06:10:07;;;;;;;18.77;10.98;;;;;;;;;;5006860;28;20029;-82
2022/05/30 06:12:45;;;;;;;15.48;10.15;;;;;;;;;;5010964;28;20042;-82
2022/05/30 06:15:19;;;;;;;16.63;10.73;;;;;;;;;;4991942;28;20029;-81
2022/05/30 06:17:48;;;;;;;16.23;9.88;;;;;;;;;;5008180;28;20046;-83
2022/05/30 06:20:16;;;;;;;18.17;10.45;;;;;;;;;;5006434;28;20038;-81
2022/05/30 06:22:42;;;;;;;18.00;10.10;;;;;;;;;;4994094;28;20034;-81
2022/05/30 06:25:08;;;;;;;17.55;10.70;;;;;;;;;;5012661;28;20052;-81
2022/05/30 06:27:34;;;;;;;17.95;11.50;;;;;;;;;;5009763;28;20083;-81
2022/05/30 06:30:00;;;;;;;17.38;10.73;;;;;;;;;;4992464;28;20030;-82
2022/05/30 06:32:26;;;;;;;17.92;11.05;;;;;;;;;;4993525;28;20053;-80
2022/05/30 06:34:52;;;;;;;16.92;10.68;;;;;;;;;;4991602;28;20050;-81
2022/05/30 06:37:18;;;;;;;19.38;11.00;;;;;;;;;;5005363;28;20497;-80
2022/05/30 06:39:43;;;;;;;17.60;11.48;;;;;;;;;;5007538;28;20022;-82
2022/05/30 06:42:15;;;;;;;15.05;10.98;;;;;;;;;;5004045;28;20034;-81
2022/05/30 06:44:40;;;;;;;19.35;11.80;;;;;;;;;;5006607;28;20096;-80
2022/05/30 06:47:07;;;;;;;17.70;11.63;;;;;;;;;;5006271;28;20117;-81
2022/05/30 06:49:33;;;;;;;24.40;11.00;;;;;;;;;;5004438;28;20026;-81
2022/05/30 06:51:59;;;;;;;16.98;11.45;;;;;;;;;;5005102;28;20117;-82
2022/05/30 06:54:25;;;;;;;17.25;10.82;;;;;;;;;;5003206;28;20082;-81
2022/05/30 06:59:35;;;;;;;18.00;11.32;;;;;;;;;;5005408;28;20072;-80
2022/05/30 07:02:02;;;;;;;17.90;11.27;;;;;;;;;;5010832;28;20025;-80
2022/05/30 07:04:32;;;;;;;18.35;11.30;;;;;;;;;;5010266;28;20025;-81
2022/05/30 07:06:58;;;;;;;;;;;;;;;;;;5010878;28;20504;-80
2022/05/30 07:09:23;;;;;;;27.10;19.02;;;;;;;;;;4994771;28;20039;-81
2022/05/30 07:11:49;;;;;;;28.98;19.77;;;;;;;;;;5009023;28;20367;-80
2022/05/30 07:14:16;;;;;;;32.10;21.70;;;;;;;;;;5006033;28;20470;-80
2022/05/30 07:16:42;;;;;;;15.50;11.77;;;;;;;;;;5006223;28;20454;-81
2022/05/30 07:19:09;;;;;;;24.63;14.07;;;;;;;;;;5012201;28;20030;-81
2022/05/30 07:21:35;;;;;;;20.02;12.75;;;;;;;;;;5008268;28;20033;-81
2022/05/30 07:24:01;;;;;;;19.75;12.00;;;;;;;;;;5003632;28;20106;-80
2022/05/30 07:26:27;;;;;;;19.33;12.38;;;;;;;;;;4994369;28;20117;-81
2022/05/30 07:28:52;;;;;;;19.90;12.55;;;;;;;;;;4995080;28;20544;-81
2022/05/30 07:31:20;;;;;;;16.85;11.73;;;;;;;;;;5010241;28;20049;-80
2022/05/30 07:33:47;;;;;;;17.77;11.98;;;;;;;;;;5005800;28;20034;-80
2022/05/30 07:36:17;;;;;;;20.98;12.65;;;;;;;;;;5005058;28;20389;-82
2022/05/30 07:38:43;;;;;;;18.80;12.20;;;;;;;;;;5010112;28;20037;-80
2022/05/30 07:41:09;;;;;;;16.80;11.15;;;;;;;;;;5008552;28;20049;-81
2022/05/30 07:43:36;;;;;;;17.33;11.18;;;;;;;;;;5007353;28;20417;-80
2022/05/30 07:46:08;;;;;;;14.85;11.13;;;;;;;;;;5009887;28;20022;-80
2022/05/30 07:48:34;;;;;;;14.65;11.60;;;;;;;;;;5005881;28;20037;-81
2022/05/30 07:51:00;;;;;;;18.52;11.80;;;;;;;;;;5007768;28;20077;-82
2022/05/30 07:53:27;;;;;;;14.43;11.75;;;;;;;;;;5001525;28;20030;-81
2022/05/30 07:55:52;;;;;;;16.67;10.57;;;;;;;;;;5002041;28;20030;-81
2022/05/30 07:58:18;;;;;;;20.98;11.00;;;;;;;;;;4983792;28;20029;-81
2022/05/30 08:00:44;;;;;;;18.30;11.60;;;;;;;;;;5003438;28;20026;-81
2022/05/30 08:03:11;;;;;;;16.42;11.55;;;;;;;;;;5003261;28;20026;-81
2022/05/30 08:05:39;;;;;;;19.95;11.73;;;;;;;;;;5004859;28;20026;-81
2022/05/30 08:08:06;;;;;;;19.95;11.50;;;;;;;;;;5002201;28;20057;-80
2022/05/30 08:10:32;;;;;;;15.93;11.40;;;;;;;;;;4990295;28;20032;-81
2022/05/30 08:13:00;;;;;;;16.00;11.77;;;;;;;;;;5011532;28;20101;-81
2022/05/30 08:15:26;;;;;;;17.17;10.38;;;;;;;;;;5008676;28;20029;-80
2022/05/30 08:17:56;;;;;;;13.82;10.77;;;;;;;;;;4993040;28;20025;-80
2022/05/30 08:20:23;;;;;;;16.52;11.30;;;;;;;;;;4993609;28;20040;-82
2022/05/30 08:22:48;;;;;;;19.30;10.93;;;;;;;;;;4994901;28;20105;-81
2022/05/30 08:25:16;;;;;;;14.88;10.85;;;;;;;;;;5010860;28;20120;-81
2022/05/30 08:27:43;;;;;;;17.58;11.13;;;;;;;;;;5007916;28;20022;-80
2022/05/30 08:30:11;;;;;;;16.75;10.77;;;;;;;;;;5006285;28;20454;-81
2022/05/30 08:32:40;;;;;;;12.88;10.23;;;;;;;;;;5001441;28;20042;-82
2022/05/30 08:35:08;;;;;;;16.42;9.88;;;;;;;;;;4992288;28;20128;-80
2022/05/30 08:37:37;;;;;;;12.05;9.18;;;;;;;;;;5007169;28;20038;-79
2022/05/30 08:42:50;;;;;;;15.65;9.48;;;;;;;;;;5004658;28;20044;-79
2022/05/30 08:45:19;;;;;;;13.20;9.45;;;;;;;;;;5008259;28;20034;-79
2022/05/30 08:47:52;;;;;;;15.15;10.05;;;;;;;;;;4998066;28;20505;-80
2022/05/30 08:50:46;;;;;;;15.68;10.63;;;;;;;;;;4984472;28;20441;-80
2022/05/30 08:53:47;;;;;;;13.48;8.98;;;;;;;;;;5003313;28;20049;-86
2022/05/30 08:56:24;;;;;;;14.20;8.68;;;;;;;;;;5004927;28;20097;-80
2022/05/30 08:59:20;;;;;;;18.95;8.88;;;;;;;;;;5012832;28;20034;-80
2022/05/30 09:01:50;;;;;;;12.90;9.85;;;;;;;;;;4983539;28;20612;-80
2022/05/30 09:04:28;;;;;;;15.73;10.18;;;;;;;;;;5000409;28;20385;-78
2022/05/30 09:07:13;;;;;;;13.13;9.18;;;;;;;;;;5009410;28;20814;-79
2022/05/30 09:09:50;;;;;;;13.27;8.00;;;;;;;;;;4988325;28;20041;-86
2022/05/30 09:12:15;;;;;;;12.93;7.90;;;;;;;;;;5006586;28;20029;-82
2022/05/30 09:14:56;;;;;;;12.43;8.38;;;;;;;;;;5006261;28;20090;-81
2022/05/30 09:17:34;;;;;;;13.30;8.55;;;;;;;;;;5001761;28;20045;-79
2022/05/30 09:20:03;;;;;;;11.68;7.55;;;;;;;;;;4981873;28;20041;-80
2022/05/30 09:22:29;;;;;;;;;;;;;;;;;;5000522;28;20029;-80
2022/05/30 09:27:38;;;;;;;13.27;8.07;;;;;;;;;;5002562;28;20048;-79
2022/05/30 09:30:07;;;;;;;10.23;8.10;;;;;;;;;;4980692;28;20029;-79
2022/05/30 09:32:54;;;;;;;13.63;8.40;;;;;;;;;;5004740;28;20117;-78
2022/05/30 09:35:27;;;;;;;14.77;8.02;;;;;;;;;;5002707;28;20074;-81
2022/05/30 09:38:08;;;;;;;10.25;8.18;;;;;;;;;;5005319;28;20092;-79
2022/05/30 09:40:43;;;;;;;10.15;6.95;;;;;;;;;;4988265;28;20080;-80
2022/05/30 09:43:13;;;;;;;15.35;8.00;;;;;;;;;;5002490;28;20469;-83
2022/05/30 09:45:39;;;;;;;12.20;7.88;;;;;;;;;;4991921;28;20025;-80
2022/05/30 09:48:13;;;;;;;13.02;8.40;;;;;;;;;;5011200;28;20053;-80
2022/05/30 09:50:44;;;;;;;11.35;8.07;;;;;;;;;;4994023;28;20032;-80
2022/05/30 09:53:10;;;;;;;10.10;6.90;;;;;;;;;;5014529;28;20030;-86
2022/05/30 09:55:51;;;;;;;12.63;7.82;;;;;;;;;;5009652;28;20519;-82
2022/05/30 09:58:36;;;;;;;11.43;7.72;;;;;;;;;;5009876;28;20034;-80
2022/05/30 10:01:02;;;;;;;12.35;8.48;;;;;;;;;;5012937;28;20030;-83
2022/05/30 10:03:33;;;;;;;10.30;7.82;;;;;;;;;;5013451;28;20448;-80
2022/05/30 10:06:18;;;;;;;10.55;8.00;;;;;;;;;;5006983;28;20465;-83
2022/05/30 10:08:46;;;;;;;11.63;8.50;;;;;;;;;;5013040;28;20369;-81
2022/05/30 10:11:32;;;;;;;14.45;8.10;;;;;;;;;;5008203;28;20516;-81
2022/05/30 10:13:58;;;;;;;9.57;8.18;;;;;;;;;;4992498;28;20113;-80
2022/05/30 10:16:33;;;;;;;12.95;7.97;;;;;;;;;;5010708;28;20038;-81
2022/05/30 10:19:04;;;;;;;15.55;9.35;;;;;;;;;;5011651;28;20057;-79
2022/05/30 10:30:03;;;;;;;11.65;7.35;;;;;;;;;;5010154;28;20034;-84
2022/05/30 10:33:06;;;;;;;13.55;7.18;;;;;;;;;;5010057;28;20037;-80
2022/05/30 10:36:03;;;;;;;12.13;8.30;;;;;;;;;;4978894;28;20053;-80
2022/05/30 10:38:31;;;;;;;13.70;7.75;;;;;;;;;;5013341;28;20032;-80
2022/05/30 10:41:28;;;;;;;10.68;6.47;;;;;;;;;;4992837;28;20026;-83
2022/05/30 10:44:21;;;;;;;13.10;7.25;;;;;;;;;;4975178;28;20453;-82
2022/05/30 10:46:59;;;;;;;13.13;6.70;;;;;;;;;;4997551;28;20236;-83
2022/05/30 10:49:31;;;;;;;16.08;7.63;;;;;;;;;;5012473;28;20133;-82
2022/05/30 10:52:14;;;;;;;10.65;6.03;;;;;;;;;;4994626;28;20112;-82
2022/05/30 10:54:49;;;;;;;9.95;6.43;;;;;;;;;;4989874;28;20041;-80
2022/05/30 10:57:23;;;;;;;10.80;6.60;;;;;;;;;;5011270;28;20026;-81
2022/05/30 11:00:04;;;;;;;10.93;6.53;;;;;;;;;;5009065;28;20026;-83
2022/05/30 11:02:51;;;;;;;14.48;6.70;;;;;;;;;;5010249;28;20401;-80
2022/05/30 11:05:29;;;;;;;9.90;6.13;;;;;;;;;;5009039;28;20057;-82
2022/05/30 11:08:05;;;;;;;9.57;6.57;;;;;;;;;;5001955;28;20026;-80
2022/05/30 11:10:41;;;;;;;9.60;6.60;;;;;;;;;;5009450;28;20029;-82
2022/05/30 11:13:32;;;;;;;9.05;6.45;;;;;;;;;;5010935;28;20409;-83
2022/05/30 11:16:43;;;;;;;10.07;6.97;;;;;;;;;;5010534;28;20025;-82
2022/05/30 11:19:27;;;;;;;11.80;6.88;;;;;;;;;;4986747;28;20502;-82
2022/05/30 11:22:05;;;;;;;10.68;6.75;;;;;;;;;;4995198;28;20481;-80
2022/05/30 11:24:32;;;;;;;11.95;6.35;;;;;;;;;;4992211;28;20116;-82
2022/05/30 11:27:32;;;;;;;14.20;6.38;;;;;;;;;;5005159;28;20396;-83
2022/05/30 11:30:07;;;;;;;10.35;6.20;;;;;;;;;;4983255;28;20087;-80
2022/05/30 11:32:49;;;;;;;8.52;5.93;;;;;;;;;;5005919;28;20501;-87
2022/05/30 11:35:20;;;;;;;8.75;6.43;;;;;;;;;;4991637;28;20034;-80
2022/05/30 11:37:49;;;;;;;11.20;6.80;;;;;;;;;;4991134;28;20180;-84
2022/05/30 11:40:27;;;;;;;10.95;6.28;;;;;;;;;;4989844;28;20117;-81
2022/05/30 11:42:58;;;;;;;8.60;6.05;;;;;;;;;;4982966;28;20029;-85
2022/05/30 11:45:54;;;;;;;8.18;6.07;;;;;;;;;;5002532;28;20153;-88
2022/05/30 11:48:38;;;;;;;11.20;6.13;;;;;;;;;;4977991;28;20048;-84
2022/05/30 11:51:28;;;;;;;11.27;6.43;;;;;;;;;;5005273;28;20028;-81
2022/05/30 11:53:59;;;;;;;10.68;6.07;;;;;;;;;;4987772;28;20064;-82
2022/05/30 11:56:53;;;;;;;11.82;6.00;;;;;;;;;;4983968;28;20026;-81
2022/05/30 11:59:40;;;;;;;8.60;6.13;;;;;;;;;;5011548;28;20500;-84
2022/05/30 12:02:12;;;;;;;8.25;5.50;;;;;;;;;;5010549;28;20025;-82
2022/05/30 12:05:15;;;;;;;9.45;5.72;;;;;;;;;;5011027;28;20028;-85
2022/05/30 12:08:06;;;;;;;8.85;5.40;;;;;;;;;;5000392;28;20037;-81
2022/05/30 12:10:56;;;;;;;7.93;5.45;;;;;;;;;;4962925;28;20030;-83
2022/05/30 12:13:38;;;;;;;8.82;5.72;;;;;;;;;;5010834;28;20042;-84
2022/05/30 12:16:28;;;;;;;9.50;5.72;;;;;;;;;;5010255;28;20029;-86
2022/05/30 12:24:51;;;;;;;7.72;5.18;;;;;;;;;;5010179;28;20556;-86
2022/05/30 12:27:26;;;;;;;7.13;4.80;;;;;;;;;;4994422;28;20030;-86
2022/05/30 12:29:52;;;;;;;6.82;5.47;;;;;;;;;;5011758;28;20037;-84
2022/05/30 12:32:32;;;;;;;7.55;5.07;;;;;;;;;;4994328;28;20034;-81
2022/05/30 12:34:57;;;;;;;12.90;5.00;;;;;;;;;;4990008;28;20046;-84
2022/05/30 12:37:38;;;;;;;8.45;5.00;;;;;;;;;;4993884;28;20034;-84
2022/05/30 12:40:09;;;;;;;9.13;4.65;;;;;;;;;;5009915;28;20034;-87
2022/05/30 12:42:42;;;;;;;8.23;4.60;;;;;;;;;;5007752;28;20112;-83
2022/05/30 12:45:20;;;;;;;9.75;4.22;;;;;;;;;;5010337;28;20482;-86
2022/05/30 12:47:54;;;;;;;8.20;4.57;;;;;;;;;;5010887;28;20036;-85
2022/05/30 12:50:32;;;;;;;9.50;4.90;;;;;;;;;;5011164;28;20691;-89
2022/05/30 12:53:00;;;;;;;6.18;4.43;;;;;;;;;;5009250;28;20026;-87
2022/05/30 12:55:37;;;;;;;9.88;4.10;;;;;;;;;;4995980;28;20029;-82
2022/05/30 12:58:03;;;;;;;6.85;4.13;;;;;;;;;;5009333;28;20120;-85
2022/05/30 13:00:42;;;;;;;9.55;4.15;;;;;;;;;;4992025;28;20112;-82
2022/05/30 13:03:29;;;;;;;9.05;3.90;;;;;;;;;;4990306;28;20440;-83
2022/05/30 13:06:22;;;;;;;7.72;3.92;;;;;;;;;;4988860;28;20723;-81
2022/05/30 13:09:01;;;;;;;9.68;3.70;;;;;;;;;;5010896;28;20068;-81
2022/05/30 13:11:32;;;;;;;8.32;3.70;;;;;;;;;;4988102;28;20050;-81
2022/05/30 13:14:22;;;;;;;8.52;3.55;;;;;;;;;;5007643;28;20029;-82
2022/05/30 13:16:48;;;;;;;7.20;3.90;;;;;;;;;;5000847;28;20037;-81
2022/05/30 13:19:16;;;;;;;8.55;3.55;;;;;;;;;;5007799;28;20041;-85
2022/05/30 13:21:49;;;;;;;7.33;3.80;;;;;;;;;;5007848;28;20033;-83
2022/05/30 13:24:29;;;;;;;9.32;4.18;;;;;;;;;;5005887;28;20026;-84
2022/05/30 13:26:55;;;;;;;10.63;4.28;;;;;;;;;;5008297;28;20037;-82
2022/05/30 13:29:31;;;;;;;7.97;3.70;;;;;;;;;;5004667;28;20049;-87
2022/05/30 13:31:56;;;;;;;7.18;3.85;;;;;;;;;;5009289;28;20363;-82
2022/05/30 13:34:26;;;;;;;6.05;3.97;;;;;;;;;;5007915;28;20067;-83
2022/05/30 13:36:53;;;;;;;6.63;3.60;;;;;;;;;;5007913;28;20502;-82
2022/05/30 13:39:20;;;;;;;7.20;3.78;;;;;;;;;;5008362;28;20034;-82
2022/05/30 13:41:46;;;;;;;6.63;3.90;;;;;;;;;;4984279;28;20033;-83
2022/05/30 13:44:15;;;;;;;9.63;4.40;;;;;;;;;;4989561;28;20052;-86
2022/05/30 13:46:47;;;;;;;8.48;4.30;;;;;;;;;;5008404;28;20031;-88
2022/05/30 13:49:13;;;;;;;7.10;3.97;;;;;;;;;;4983924;28;20022;-86
2022/05/30 13:51:45;;;;;;;6.90;3.88;;;;;;;;;;5001935;28;20033;-84
2022/05/30 13:54:13;;;;;;;7.35;4.25;;;;;;;;;;4989670;28;20034;-83
2022/05/30 13:56:41;;;;;;;6.25;4.03;;;;;;;;;;5009033;28;20113;-82
2022/05/30 13:59:28;;;;;;;8.18;3.60;;;;;;;;;;5008468;28;20531;-86
2022/05/30 14:02:02;;;;;;;7.30;3.75;;;;;;;;;;5002141;28;20033;-84
2022/05/30 14:04:37;;;;;;;10.70;4.20;;;;;;;;;;5004061;28;20545;-84
2022/05/30 14:07:04;;;;;;;7.07;3.80;;;;;;;;;;5006821;28;20025;-82
2022/05/30 14:09:30;;;;;;;7.47;3.97;;;;;;;;;;5005649;28;20478;-81
2022/05/30 14:12:01;;;;;;;7.22;3.67;;;;;;;;;;4989557;28;20025;-80
2022/05/30 14:14:45;;;;;;;10.57;4.00;;;;;;;;;;5009240;28;20030;-81
2022/05/30 14:17:12;;;;;;;8.32;4.10;;;;;;;;;;4989800;28;20022;-83
2022/05/30 14:19:40;;;;;;;7.57;3.47;;;;;;;;;;5005004;28;20041;-81
2022/05/30 14:22:25;;;;;;;8.47;3.73;;;;;;;;;;5004693;28;20477;-80
2022/05/30 14:24:59;;;;;;;5.45;3.25;;;;;;;;;;5006639;28;20025;-80
2022/05/30 14:27:27;;;;;;;5.35;3.28;;;;;;;;;;4988165;28;20087;-82
2022/05/30 14:29:57;;;;;;;6.45;3.25;;;;;;;;;;4999235;28;20034;-81
2022/05/30 14:32:30;;;;;;;5.85;3.40;;;;;;;;;;5002477;28;20473;-80
2022/05/30 14:35:06;;;;;;;5.60;2.90;;;;;;;;;;5003194;28;20127;-79
2022/05/30 14:37:38;;;;;;;5.93;3.42;;;;;;;;;;5010943;28;20026;-80
2022/05/30 14:40:26;;;;;;;9.43;3.50;;;;;;;;;;5004801;28;20038;-84
2022/05/30 14:42:58;;;;;;;4.40;2.95;;;;;;;;;;5010870;28;20029;-80
2022/05/30 14:45:43;;;;;;;7.28;3.58;;;;;;;;;;4984837;28;20091;-81
2022/05/30 14:48:13;;;;;;;7.55;3.63;;;;;;;;;;5005287;28;20030;-81
2022/05/30 14:50:43;;;;;;;7.32;3.65;;;;;;;;;;5001383;28;20041;-80
2022/05/30 14:53:14;;;;;;;7.90;3.53;;;;;;;;;;5003521;28;20034;-81
2022/05/30 14:55:48;;;;;;;8.65;3.80;;;;;;;;;;5016266;28;20084;-80
2022/05/30 14:58:15;;;;;;;7.80;3.92;;;;;;;;;;5011887;28;20129;-80
2022/05/30 15:00:59;;;;;;;9.55;4.05;;;;;;;;;;5006536;28;20057;-81
2022/05/30 15:06:14;;;;;;;7.22;3.60;;;;;;;;;;5006762;28;20111;-80
2022/05/30 15:08:40;;;;;;;8.75;3.67;;;;;;;;;;5006777;28;20025;-80
2022/05/30 15:11:16;;;;;;;7.43;3.72;;;;;;;;;;5006991;28;20030;-81
2022/05/30 15:13:49;;;;;;;7.47;3.85;;;;;;;;;;5005719;28;20032;-79
2022/05/30 15:16:16;;;;;;;9.48;3.75;;;;;;;;;;4989514;28;20426;-79
2022/05/30 15:18:43;;;;;;;9.07;3.78;;;;;;;;;;5005214;28;20443;-78
2022/05/30 15:21:13;;;;;;;7.57;3.95;;;;;;;;;;5008186;28;20026;-79